createdAt,value
2019-01-15T00:01:22.480Z,1.47
2019-01-15T00:03:52.538Z,1.23
2019-01-15T00:06:22.653Z,1.30
2019-01-15T00:08:53.335Z,1.90
2019-01-15T00:11:23.445Z,1.57
2019-01-15T00:13:53.473Z,1.00
2019-01-15T00:16:23.585Z,1.03
2019-01-15T00:18:53.864Z,1.50
2019-01-15T00:21:24.115Z,1.43
2019-01-15T00:23:54.175Z,1.67
2019-01-15T00:26:24.284Z,1.00
2019-01-15T00:28:54.450Z,1.60
2019-01-15T00:31:24.549Z,1.37
2019-01-15T00:33:54.590Z,1.33
2019-01-15T00:36:25.217Z,1.00
2019-01-15T00:38:55.322Z,1.30
2019-01-15T00:41:25.383Z,1.67
2019-01-15T00:43:55.447Z,0.80
2019-01-15T00:46:25.632Z,1.30
2019-01-15T00:48:55.839Z,1.40
2019-01-15T00:51:25.967Z,1.37
2019-01-15T00:53:56.115Z,1.10
2019-01-15T00:56:26.218Z,1.47
2019-01-15T00:58:56.269Z,1.20
2019-01-15T01:01:26.344Z,1.50
2019-01-15T01:03:56.441Z,1.23
2019-01-15T01:06:26.615Z,1.37
2019-01-15T01:08:56.738Z,1.00
2019-01-15T01:11:26.982Z,1.20
2019-01-15T01:13:57.165Z,0.97
2019-01-15T01:16:27.322Z,1.30
2019-01-15T01:18:57.681Z,1.00
2019-01-15T01:21:27.883Z,1.47
2019-01-15T01:23:58.052Z,1.20
2019-01-15T01:26:28.149Z,1.53
2019-01-15T01:28:58.231Z,1.53
2019-01-15T01:31:28.304Z,1.40
2019-01-15T01:33:58.369Z,1.47
2019-01-15T01:36:28.510Z,1.03
2019-01-15T01:38:58.603Z,1.53
2019-01-15T01:41:28.747Z,1.20
2019-01-15T01:43:58.843Z,1.30
2019-01-15T01:46:29.180Z,1.20
2019-01-15T01:48:59.197Z,1.43
2019-01-15T01:51:29.360Z,1.20
2019-01-15T01:53:59.466Z,1.13
2019-01-15T01:56:29.535Z,1.37
2019-01-15T01:58:59.650Z,1.17
2019-01-15T02:01:29.749Z,1.40
2019-01-15T02:03:59.777Z,1.53
2019-01-15T02:06:29.855Z,1.97
2019-01-15T02:08:59.966Z,1.67
2019-01-15T02:11:30.096Z,1.67
2019-01-15T02:14:00.104Z,1.37
2019-01-15T02:16:30.269Z,1.37
2019-01-15T02:19:00.399Z,1.33
2019-01-15T02:21:30.528Z,1.17
2019-01-15T02:24:00.926Z,0.80
2019-01-15T02:26:31.920Z,1.37
2019-01-15T02:29:02.025Z,1.23
2019-01-15T02:31:33.119Z,1.03
2019-01-15T02:34:03.915Z,0.90
2019-01-15T02:36:34.150Z,1.43
2019-01-15T02:39:07.529Z,1.97
2019-01-15T02:41:37.804Z,0.77
2019-01-15T02:44:08.062Z,1.00
2019-01-15T02:46:38.108Z,1.47
2019-01-15T02:49:08.236Z,1.50
2019-01-15T02:51:38.355Z,1.10
2019-01-15T02:54:08.825Z,1.13
2019-01-15T02:56:39.017Z,0.80
2019-01-15T02:59:09.159Z,1.07
2019-01-15T03:01:39.221Z,1.53
2019-01-15T03:04:09.284Z,1.00
2019-01-15T03:06:40.472Z,1.37
2019-01-15T03:09:10.831Z,1.97
2019-01-15T03:11:41.049Z,1.30
2019-01-15T03:14:11.199Z,1.33
2019-01-15T03:16:41.226Z,1.10
2019-01-15T03:19:12.375Z,0.75
2019-01-15T03:21:42.610Z,1.40
2019-01-15T03:24:12.924Z,1.00
2019-01-15T03:26:53.884Z,1.30
2019-01-15T03:29:23.997Z,1.50
2019-01-15T03:31:54.160Z,1.30
2019-01-15T03:34:24.411Z,1.63
2019-01-15T03:36:54.511Z,1.23
2019-01-15T03:39:24.691Z,1.50
2019-01-15T03:41:54.816Z,0.80
2019-01-15T03:44:25.079Z,1.37
2019-01-15T03:46:55.316Z,2.20
2019-01-15T03:49:25.562Z,1.40
2019-01-15T03:51:55.729Z,1.80
2019-01-15T03:54:25.832Z,1.40
2019-01-15T03:56:55.912Z,1.43
2019-01-15T03:59:25.987Z,1.37
2019-01-15T04:01:56.116Z,1.53
2019-01-15T04:04:26.339Z,1.47
2019-01-15T04:06:56.572Z,0.93
2019-01-15T04:09:27.111Z,1.37
2019-01-15T04:11:57.170Z,1.30
2019-01-15T04:14:27.169Z,1.33
2019-01-15T04:16:57.250Z,1.10
2019-01-15T04:19:27.402Z,1.10
2019-01-15T04:21:57.488Z,1.23
2019-01-15T04:24:27.613Z,1.17
2019-01-15T04:26:57.688Z,1.13
2019-01-15T04:29:27.854Z,1.07
2019-01-15T04:31:58.452Z,1.50
2019-01-15T04:34:28.593Z,0.83
2019-01-15T04:36:58.788Z,1.13
2019-01-15T04:39:28.918Z,1.37
2019-01-15T04:41:59.059Z,1.33
2019-01-15T04:44:29.197Z,1.10
2019-01-15T04:46:59.326Z,1.13
2019-01-15T04:49:29.440Z,1.47
2019-01-15T04:51:59.495Z,1.33
2019-01-15T04:54:29.473Z,1.20
2019-01-15T04:56:59.955Z,1.93
2019-01-15T04:59:30.478Z,1.57
2019-01-15T05:02:00.673Z,1.57
2019-01-15T05:04:30.725Z,1.60
2019-01-15T05:07:00.875Z,1.57
2019-01-15T05:09:30.980Z,2.07
2019-01-15T05:12:01.162Z,1.53
2019-01-15T05:14:31.199Z,1.53
2019-01-15T05:17:01.607Z,2.00
2019-01-15T05:19:31.678Z,1.63
2019-01-15T05:22:01.868Z,1.80
2019-01-15T05:24:32.135Z,2.70
2019-01-15T05:27:02.351Z,3.30
2019-01-15T05:29:32.440Z,2.50
2019-01-15T05:32:02.654Z,2.93
2019-01-15T05:34:32.779Z,2.97
2019-01-15T05:37:03.022Z,3.60
2019-01-15T05:39:33.094Z,4.20
2019-01-15T05:42:03.276Z,4.47
2019-01-15T05:44:33.423Z,4.10
2019-01-15T05:47:11.817Z,3.47
2019-01-15T05:49:41.579Z,4.37
2019-01-15T05:52:11.680Z,5.13
2019-01-15T05:54:41.958Z,3.83
2019-01-15T05:57:12.106Z,5.43
2019-01-15T05:59:42.473Z,4.33
2019-01-15T06:02:12.694Z,4.57
2019-01-15T06:04:42.926Z,4.53
2019-01-15T06:07:13.014Z,4.23
2019-01-15T06:09:43.161Z,5.50
2019-01-15T06:12:13.367Z,3.00
2019-01-15T06:14:43.427Z,4.80
2019-01-15T06:17:13.525Z,5.67
2019-01-15T06:19:43.676Z,5.53
2019-01-15T06:22:13.807Z,5.00
2019-01-15T06:24:43.954Z,5.73
2019-01-15T06:27:14.216Z,5.20
2019-01-15T06:29:45.195Z,5.77
2019-01-15T06:32:16.419Z,5.60
2019-01-15T06:34:46.631Z,6.67
2019-01-15T06:37:17.024Z,6.03
2019-01-15T06:39:47.266Z,6.47
2019-01-15T06:42:17.352Z,5.57
2019-01-15T06:44:47.456Z,7.07
2019-01-15T06:47:17.981Z,5.43
2019-01-15T06:49:49.536Z,6.30
2019-01-15T06:52:19.944Z,5.70
2019-01-15T06:54:49.983Z,5.83
2019-01-15T06:57:20.079Z,5.97
2019-01-15T06:59:50.300Z,5.90
2019-01-15T07:02:21.228Z,5.77
2019-01-15T07:04:51.318Z,5.83
2019-01-15T07:07:21.438Z,5.13
2019-01-15T07:09:51.446Z,5.60
2019-01-15T07:12:21.953Z,6.23
2019-01-15T07:14:54.751Z,5.10
2019-01-15T07:17:24.826Z,5.23
2019-01-15T07:19:55.027Z,5.13
2019-01-15T07:22:25.248Z,5.83
2019-01-15T07:24:56.470Z,5.10
2019-01-15T07:27:27.056Z,7.53
2019-01-15T07:29:58.444Z,5.57
2019-01-15T07:32:28.522Z,5.63
2019-01-15T07:34:58.578Z,5.43
2019-01-15T07:37:28.595Z,5.10
2019-01-15T07:39:58.614Z,5.40
2019-01-15T07:42:29.728Z,5.53
2019-01-15T07:44:59.826Z,4.70
2019-01-15T07:47:29.794Z,5.63
2019-01-15T07:49:59.932Z,4.90
2019-01-15T07:52:30.055Z,4.90
2019-01-15T07:55:00.249Z,5.60
2019-01-15T07:57:30.505Z,5.90
2019-01-15T08:00:00.461Z,4.07
2019-01-15T08:02:31.531Z,5.33
2019-01-15T08:05:01.713Z,5.53
2019-01-15T08:07:31.839Z,4.53
2019-01-15T08:10:01.819Z,5.33
2019-01-15T08:12:32.945Z,5.37
2019-01-15T08:15:03.103Z,5.73
2019-01-15T08:17:35.170Z,6.27
2019-01-15T08:20:08.751Z,6.03
2019-01-15T08:22:39.154Z,5.63
2019-01-15T08:25:09.556Z,5.63
2019-01-15T08:27:39.671Z,5.17
2019-01-15T08:30:14.331Z,5.10
2019-01-15T08:32:44.549Z,5.67
2019-01-15T08:35:14.791Z,5.97
2019-01-15T08:37:44.996Z,6.03
2019-01-15T08:40:15.060Z,4.77
2019-01-15T08:42:45.150Z,5.50
2019-01-15T08:45:15.505Z,4.90
2019-01-15T08:47:51.043Z,5.63
2019-01-15T08:50:22.087Z,5.70
2019-01-15T08:52:53.748Z,6.27
2019-01-15T08:55:27.218Z,5.77
2019-01-15T08:57:57.345Z,5.33
2019-01-15T09:00:27.711Z,5.80
2019-01-15T09:02:58.730Z,7.03
2019-01-15T09:05:28.822Z,7.07
2019-01-15T09:08:01.757Z,5.37
2019-01-15T09:10:32.903Z,5.83
2019-01-15T09:13:03.148Z,5.53
2019-01-15T09:15:34.948Z,4.83
2019-01-15T09:18:05.171Z,4.50
2019-01-15T09:20:37.022Z,4.63
2019-01-15T09:23:07.160Z,5.90
2019-01-15T09:25:39.592Z,5.87
2019-01-15T09:28:09.695Z,4.83
2019-01-15T09:30:39.881Z,6.10
2019-01-15T09:33:12.267Z,5.27
2019-01-15T09:35:42.300Z,6.30
2019-01-15T09:38:12.660Z,4.67
2019-01-15T09:40:42.964Z,4.50
2019-01-15T09:43:13.013Z,5.87
2019-01-15T09:45:43.084Z,4.70
2019-01-15T09:48:23.775Z,5.20
2019-01-15T09:50:53.925Z,5.17
2019-01-15T09:53:24.031Z,4.30
2019-01-15T09:55:54.521Z,4.00
2019-01-15T09:58:24.569Z,5.43
2019-01-15T10:00:54.664Z,4.60
2019-01-15T10:03:24.734Z,4.70
2019-01-15T10:05:55.809Z,4.33
2019-01-15T10:08:26.849Z,4.73
2019-01-15T10:10:56.850Z,4.67
2019-01-15T10:13:26.864Z,3.77
2019-01-15T10:15:56.982Z,4.40
2019-01-15T10:18:28.822Z,4.03
2019-01-15T10:20:58.923Z,2.70
2019-01-15T10:23:29.022Z,3.70
2019-01-15T10:25:59.004Z,4.00
2019-01-15T10:28:29.080Z,5.23
2019-01-15T10:31:21.320Z,4.13
2019-01-15T10:33:53.703Z,4.80
2019-01-15T10:36:23.033Z,3.43
2019-01-15T10:38:53.109Z,5.20
2019-01-15T10:41:23.184Z,4.30
2019-01-15T10:43:53.364Z,3.60
2019-01-15T10:46:23.476Z,4.47
2019-01-15T10:48:53.482Z,4.07
2019-01-15T10:51:23.488Z,4.90
2019-01-15T10:53:53.479Z,3.50
2019-01-15T10:56:23.632Z,3.63
2019-01-15T10:58:53.643Z,3.77
2019-01-15T11:01:23.729Z,3.90
2019-01-15T11:03:53.764Z,3.80
2019-01-15T11:06:23.857Z,3.07
2019-01-15T11:08:53.903Z,3.93
2019-01-15T11:11:23.902Z,4.00
2019-01-15T11:13:53.901Z,3.57
2019-01-15T11:16:24.027Z,3.20
2019-01-15T11:18:54.200Z,3.37
2019-01-15T11:21:24.277Z,2.67
2019-01-15T11:23:54.381Z,3.60
2019-01-15T11:26:24.473Z,3.87
2019-01-15T11:28:54.561Z,2.83
2019-01-15T11:31:24.541Z,3.17
2019-01-15T11:33:54.674Z,3.43
2019-01-15T11:36:24.725Z,3.03
2019-01-15T11:38:54.715Z,3.77
2019-01-15T11:41:24.778Z,2.97
2019-01-15T11:43:54.867Z,2.93
2019-01-15T11:46:24.964Z,2.70
2019-01-15T11:48:56.077Z,3.50
2019-01-15T11:51:26.114Z,4.07
2019-01-15T11:53:56.140Z,3.20
2019-01-15T11:56:26.250Z,3.10
2019-01-15T11:58:56.361Z,4.07
2019-01-15T12:01:33.003Z,3.83
2019-01-15T12:04:21.409Z,3.33
2019-01-15T12:07:16.501Z,2.87
2019-01-15T12:09:59.431Z,3.20
2019-01-15T12:12:38.090Z,3.63
2019-01-15T12:15:25.990Z,2.67
2019-01-15T12:18:30.292Z,3.37
2019-01-15T12:21:10.064Z,3.40
2019-01-15T12:24:01.578Z,2.93
2019-01-15T12:26:50.870Z,2.63
2019-01-15T12:29:46.079Z,3.23
2019-01-15T12:32:33.957Z,2.50
2019-01-15T12:35:23.049Z,2.83
2019-01-15T12:38:12.281Z,2.73
2019-01-15T12:41:04.587Z,3.33
2019-01-15T12:43:53.549Z,3.40
2019-01-15T12:46:36.285Z,2.50
2019-01-15T12:49:32.500Z,2.57
2019-01-15T12:52:22.162Z,3.77
2019-01-15T12:55:14.092Z,2.20
2019-01-15T12:58:01.896Z,1.80
2019-01-15T13:00:57.190Z,2.17
2019-01-15T13:03:44.914Z,2.02
2019-01-15T13:06:32.915Z,2.10
2019-01-15T13:09:12.831Z,1.97
2019-01-15T13:12:00.406Z,2.57
2019-01-15T13:14:55.618Z,2.60
2019-01-15T13:17:59.488Z,1.90
2019-01-15T13:20:48.673Z,2.30
2019-01-15T13:23:37.817Z,2.00
2019-01-15T13:26:20.204Z,3.50
2019-01-15T13:29:20.269Z,1.80
2019-01-15T13:32:10.844Z,2.57
2019-01-15T13:35:00.498Z,2.00
2019-01-15T13:37:44.852Z,2.13
2019-01-15T13:40:27.188Z,2.00
2019-01-15T13:43:14.904Z,3.13
2019-01-15T13:46:06.940Z,2.70
2019-01-15T13:49:02.017Z,1.77
2019-01-15T13:51:39.818Z,3.07
2019-01-15T13:54:27.737Z,2.07
2019-01-15T13:57:15.391Z,2.10
2019-01-15T14:00:03.375Z,2.33
2019-01-15T14:02:46.360Z,2.40
2019-01-15T14:05:34.218Z,1.87
2019-01-15T14:08:22.271Z,2.10
2019-01-15T14:11:23.541Z,1.83
2019-01-15T14:14:13.266Z,2.30
2019-01-15T14:17:07.590Z,2.83
2019-01-15T14:19:59.475Z,1.93
2019-01-15T14:23:06.977Z,1.90
2019-01-15T14:25:54.825Z,2.33
2019-01-15T14:28:32.673Z,2.07
2019-01-15T14:31:20.521Z,2.00
2019-01-15T14:34:02.772Z,2.23
2019-01-15T14:36:50.974Z,1.70
2019-01-15T14:39:33.949Z,2.13
2019-01-15T14:42:26.747Z,1.62
2019-01-15T14:45:14.610Z,1.33
2019-01-15T14:48:03.811Z,1.77
2019-01-15T14:50:51.778Z,2.03
2019-01-15T14:53:39.361Z,1.73
2019-01-15T14:56:23.470Z,2.20
2019-01-15T14:59:15.448Z,2.50
2019-01-15T15:01:55.504Z,2.23
2019-01-15T15:04:50.893Z,2.53
2019-01-15T15:07:38.697Z,1.53
2019-01-15T15:10:26.467Z,2.00
2019-01-15T15:13:21.694Z,2.17
2019-01-15T15:16:16.619Z,2.03
2019-01-15T15:19:02.713Z,1.67
2019-01-15T15:21:57.729Z,2.53
2019-01-15T15:24:59.177Z,2.80
2019-01-15T15:27:51.483Z,2.23
2019-01-15T15:30:34.483Z,1.80
2019-01-15T15:33:15.284Z,2.03
2019-01-15T15:36:03.256Z,2.43
2019-01-15T15:39:04.754Z,2.10
2019-01-15T15:41:53.994Z,1.43
2019-01-15T15:44:58.111Z,1.67
2019-01-15T15:47:46.112Z,2.00
2019-01-15T15:50:29.190Z,2.17
2019-01-15T15:53:23.653Z,3.27
2019-01-15T15:56:18.686Z,2.07
2019-01-15T15:58:59.467Z,1.90
2019-01-15T16:01:47.077Z,3.03
2019-01-15T16:04:28.023Z,3.63
2019-01-15T16:07:16.576Z,2.40
2019-01-15T16:10:24.005Z,2.20
2019-01-15T16:13:10.393Z,2.63
2019-01-15T16:16:00.953Z,3.67
2019-01-15T16:18:59.531Z,2.90
2019-01-15T16:21:47.349Z,2.30
2019-01-15T16:24:42.008Z,2.17
2019-01-15T16:27:40.279Z,2.40
2019-01-15T16:30:34.444Z,2.53
2019-01-15T16:33:20.666Z,3.27
2019-01-15T16:36:13.854Z,3.07
2019-01-15T16:39:12.533Z,2.83
2019-01-15T16:42:01.851Z,2.52
2019-01-15T16:44:46.279Z,3.27
2019-01-15T16:47:50.805Z,2.80
2019-01-15T16:50:47.832Z,2.77
2019-01-15T16:53:55.178Z,2.53
2019-01-15T16:56:43.268Z,2.90
2019-01-15T16:59:33.398Z,2.17
2019-01-15T17:02:23.525Z,2.40
2019-01-15T17:05:11.313Z,3.20
2019-01-15T17:08:06.710Z,3.00
2019-01-15T17:10:47.356Z,3.00
2019-01-15T17:13:34.856Z,3.50
2019-01-15T17:16:34.121Z,2.67
2019-01-15T17:19:23.939Z,2.72
2019-01-15T17:22:20.564Z,2.60
2019-01-15T17:25:24.868Z,3.00
2019-01-15T17:28:17.407Z,2.77
2019-01-15T17:31:05.069Z,2.97
2019-01-15T17:33:56.043Z,2.80
2019-01-15T17:36:36.205Z,2.87
2019-01-15T17:39:26.876Z,2.70
2019-01-15T17:42:11.932Z,3.37
2019-01-15T17:45:13.157Z,3.23
2019-01-15T17:47:59.511Z,3.63
2019-01-15T17:50:47.483Z,3.63
2019-01-15T17:53:35.438Z,3.37
2019-01-15T17:56:42.719Z,3.60
2019-01-15T17:59:29.368Z,3.50
2019-01-15T18:02:17.414Z,4.40
2019-01-15T18:05:05.326Z,4.60
2019-01-15T18:07:52.665Z,4.60
2019-01-15T18:10:42.705Z,4.40
2019-01-15T18:13:46.934Z,4.13
2019-01-15T18:16:35.155Z,4.03
2019-01-15T18:19:23.544Z,4.63
2019-01-15T18:22:33.031Z,4.93
2019-01-15T18:25:34.229Z,4.50
2019-01-15T18:28:26.879Z,4.65
2019-01-15T18:31:12.217Z,4.03
2019-01-15T18:34:04.617Z,4.75
2019-01-15T18:36:55.727Z,4.67
2019-01-15T18:39:45.923Z,4.60
2019-01-15T18:42:38.205Z,4.67
2019-01-15T18:45:20.294Z,4.60
2019-01-15T18:48:08.042Z,4.50
2019-01-15T18:51:05.046Z,4.70
2019-01-15T18:53:59.541Z,4.77
2019-01-15T18:56:53.556Z,4.60
2019-01-15T18:59:41.409Z,4.30
2019-01-15T19:02:31.337Z,4.60
2019-01-15T19:05:19.260Z,4.50
2019-01-15T19:08:07.139Z,4.53
2019-01-15T19:10:54.888Z,3.83
2019-01-15T19:13:44.028Z,3.90
2019-01-15T19:16:29.783Z,4.70
2019-01-15T19:19:17.444Z,3.87
2019-01-15T19:22:05.409Z,4.73
2019-01-15T19:24:50.187Z,3.97
2019-01-15T19:27:57.525Z,4.40
2019-01-15T19:30:45.143Z,3.87
2019-01-15T19:33:34.531Z,4.10
2019-01-15T19:36:29.861Z,4.00
2019-01-15T19:39:34.370Z,4.93
2019-01-15T19:42:19.775Z,4.93
2019-01-15T19:45:13.023Z,4.30
2019-01-15T19:48:06.772Z,4.50
2019-01-15T19:51:08.319Z,3.77
2019-01-15T19:53:48.532Z,4.60
2019-01-15T19:56:36.286Z,3.77
2019-01-15T19:59:27.206Z,4.17
2019-01-15T20:02:21.630Z,5.23
2019-01-15T20:05:01.663Z,4.43
2019-01-15T20:07:55.866Z,4.60
2019-01-15T20:10:43.746Z,4.70
2019-01-15T20:13:29.215Z,3.90
2019-01-15T20:16:17.021Z,4.27
2019-01-15T20:19:07.337Z,5.03
2019-01-15T20:22:07.690Z,4.20
2019-01-15T20:24:59.211Z,4.30
2019-01-15T20:27:49.990Z,3.77
2019-01-15T20:30:37.190Z,4.83
2019-01-15T20:33:26.422Z,4.33
2019-01-15T20:36:27.947Z,4.43
2019-01-15T20:39:23.318Z,4.77
2019-01-15T20:42:10.482Z,4.10
2019-01-15T20:45:08.570Z,5.60
2019-01-15T20:47:56.280Z,4.37
2019-01-15T20:50:42.683Z,5.00
2019-01-15T20:53:40.974Z,4.67
2019-01-15T20:56:30.249Z,4.90
2019-01-15T20:59:31.411Z,4.10
2019-01-15T21:02:19.322Z,4.53
2019-01-15T21:05:05.454Z,4.83
2019-01-15T21:08:00.481Z,4.73
2019-01-15T21:10:58.821Z,4.13
2019-01-15T21:13:57.893Z,4.93
2019-01-15T21:16:46.821Z,5.57
2019-01-15T21:19:35.475Z,5.83
2019-01-15T21:22:23.283Z,4.53
2019-01-15T21:25:12.629Z,5.33
2019-01-15T21:27:58.845Z,5.53
2019-01-15T21:30:59.943Z,6.50
2019-01-15T21:33:46.973Z,5.00
2019-01-15T21:36:29.196Z,6.77
2019-01-15T21:39:21.720Z,5.23
2019-01-15T21:42:20.302Z,5.53
2019-01-15T21:45:09.576Z,5.17
2019-01-15T21:47:58.067Z,7.17
2019-01-15T21:50:54.155Z,5.80
2019-01-15T21:53:49.824Z,6.37
2019-01-15T21:56:37.713Z,5.63
2019-01-15T21:59:18.058Z,5.57
2019-01-15T22:02:07.305Z,5.40
2019-01-15T22:05:13.850Z,5.67
2019-01-15T22:08:08.724Z,5.43
2019-01-15T22:11:06.824Z,6.20
2019-01-15T22:13:50.211Z,6.03
2019-01-15T22:16:37.926Z,5.83
2019-01-15T22:19:17.842Z,5.83
2019-01-15T22:22:05.433Z,6.37
2019-01-15T22:25:06.739Z,5.63
2019-01-15T22:28:05.224Z,6.07
2019-01-15T22:30:52.774Z,6.33
2019-01-15T22:33:38.996Z,6.60
2019-01-15T22:36:30.589Z,5.97
2019-01-15T22:39:29.639Z,5.27
2019-01-15T22:42:17.717Z,5.40
2019-01-15T22:45:34.294Z,5.70
2019-01-15T22:48:26.089Z,7.05
2019-01-15T22:51:22.984Z,5.07
2019-01-15T22:54:19.386Z,5.67
2019-01-15T22:57:08.718Z,6.57
2019-01-15T23:00:08.305Z,5.10
2019-01-15T23:03:15.678Z,4.80
2019-01-15T23:06:06.046Z,5.33
2019-01-15T23:08:58.107Z,6.63
2019-01-15T23:11:50.242Z,5.10
2019-01-15T23:14:31.550Z,5.40
2019-01-15T23:17:14.945Z,5.63
2019-01-15T23:20:03.317Z,5.87
2019-01-15T23:22:52.246Z,6.93
2019-01-15T23:25:54.554Z,5.93
2019-01-15T23:28:43.162Z,5.63
2019-01-15T23:31:29.739Z,5.60
2019-01-15T23:34:25.050Z,5.77
2019-01-15T23:37:12.153Z,6.17
2019-01-15T23:40:03.490Z,6.80
2019-01-15T23:42:56.338Z,6.00
2019-01-15T23:45:49.020Z,5.23
2019-01-15T23:48:41.161Z,5.20
2019-01-15T23:51:28.832Z,6.17
2019-01-15T23:54:19.327Z,6.07
2019-01-15T23:57:17.652Z,5.57
